Time;durP1;ratioP1;P1;durP2;ratioP2;P2;SDS_P1;SDS_P2;PMS_P1;PMS_P2;Temp;Humidity;BMP_temperature;BMP_pressure;BME280_temperature;BME280_humidity;BME280_pressure;Samples;Min_cycle;Max_cycle;Signal;HPM_P1;HPM_P2
2022/03/07 00:03:53;;;;;;;10.43;6.40;;;;;0.70;96731.00;;;;8413637;28;20741;-72
2022/03/07 00:07:58;;;;;;;12.83;6.53;;;;;0.70;96744.00;;;;8416397;28;20235;-73
2022/03/07 00:12:21;;;;;;;15.77;6.30;;;;;0.70;96735.00;;;;8413134;28;20238;-72
2022/03/07 00:16:24;;;;;;;9.30;6.20;;;;;0.70;96736.00;;;;8408338;28;20223;-72
2022/03/07 00:20:27;;;;;;;11.07;5.63;;;;;0.60;96735.00;;;;8406811;28;20251;-72
2022/03/07 00:24:31;;;;;;;8.03;5.30;;;;;0.60;96732.00;;;;8414620;28;20219;-75
2022/03/07 00:28:34;;;;;;;11.93;6.73;;;;;0.60;96736.00;;;;8404592;28;20680;-72
2022/03/07 00:32:40;;;;;;;12.60;5.90;;;;;0.50;96739.00;;;;8411864;28;20227;-72
2022/03/07 00:36:43;;;;;;;7.80;5.37;;;;;0.50;96735.00;;;;8410291;28;20711;-72
2022/03/07 00:40:47;;;;;;;12.27;6.27;;;;;0.50;96739.00;;;;8403466;28;20235;-72
2022/03/07 00:44:50;;;;;;;13.03;6.57;;;;;0.50;96752.00;;;;8417470;28;20622;-73
2022/03/07 00:48:53;;;;;;;8.97;5.57;;;;;0.40;96742.00;;;;8415243;28;21003;-74
2022/03/07 00:52:56;;;;;;;12.23;5.90;;;;;0.40;96743.00;;;;8413925;28;20276;-73
2022/03/07 00:57:00;;;;;;;11.97;5.53;;;;;0.40;96731.00;;;;8413498;28;20280;-71
2022/03/07 01:01:03;;;;;;;10.30;5.03;;;;;0.30;96741.00;;;;8409131;28;20276;-73
2022/03/07 01:05:07;;;;;;;10.30;5.43;;;;;0.30;96736.00;;;;8403829;28;20223;-73
2022/03/07 01:09:13;;;;;;;9.67;5.77;;;;;0.40;96741.00;;;;8396872;27;20313;-72
2022/03/07 01:13:19;;;;;;;8.00;5.80;;;;;0.40;96739.00;;;;8413668;28;20227;-72
2022/03/07 01:17:22;;;;;;;9.17;5.63;;;;;0.30;96743.00;;;;8409402;28;20797;-75
2022/03/07 01:21:25;;;;;;;8.97;4.63;;;;;0.30;96745.00;;;;8412855;28;20231;-73
2022/03/07 01:25:29;;;;;;;6.10;4.57;;;;;0.30;96739.00;;;;8406762;28;20227;-74
2022/03/07 01:29:33;;;;;;;8.47;5.23;;;;;0.30;96732.00;;;;8414134;28;20260;-73
2022/03/07 01:33:36;;;;;;;9.47;4.47;;;;;0.20;96721.00;;;;8409735;28;20215;-74
2022/03/07 01:37:39;;;;;;;9.17;5.70;;;;;0.20;96718.00;;;;8413748;28;20321;-75
2022/03/07 01:41:43;;;;;;;10.17;5.33;;;;;0.20;96715.00;;;;8402351;28;20222;-73
2022/03/07 01:45:47;;;;;;;8.40;5.50;;;;;0.20;96709.00;;;;8405777;28;20652;-73
2022/03/07 01:49:52;;;;;;;8.30;5.20;;;;;0.10;96716.00;;;;8405507;28;20239;-73
2022/03/07 01:53:55;;;;;;;8.80;5.67;;;;;0.10;96708.00;;;;8404152;28;20246;-72
2022/03/07 01:57:58;;;;;;;7.93;5.10;;;;;0.10;96711.00;;;;8414559;28;20264;-72
2022/03/07 02:02:03;;;;;;;8.87;5.13;;;;;0.10;96708.00;;;;8404426;28;20288;-75
2022/03/07 02:06:07;;;;;;;8.70;4.80;;;;;0.00;96697.00;;;;8407443;28;20259;-73
2022/03/07 02:10:11;;;;;;;7.57;4.83;;;;;0.00;96701.00;;;;8409216;28;20280;-73
2022/03/07 02:14:15;;;;;;;6.63;5.00;;;;;0.00;96699.00;;;;8406587;28;20219;-75
2022/03/07 02:18:21;;;;;;;6.13;4.10;;;;;0.00;96699.00;;;;8412251;28;20284;-73
2022/03/07 02:22:26;;;;;;;10.60;4.93;;;;;-0.10;96691.00;;;;8408726;28;20231;-74
2022/03/07 02:26:29;;;;;;;9.60;5.80;;;;;-0.10;96700.00;;;;8410449;28;20664;-73
2022/03/07 02:30:32;;;;;;;9.83;6.07;;;;;-0.10;96699.00;;;;8409275;28;20276;-76
2022/03/07 02:34:35;;;;;;;8.23;5.47;;;;;-0.10;96698.00;;;;8403145;28;20284;-75
2022/03/07 02:38:39;;;;;;;7.50;5.20;;;;;-0.10;96701.00;;;;8404759;27;20228;-75
2022/03/07 02:42:42;;;;;;;12.63;6.07;;;;;-0.10;96695.00;;;;8410054;28;20223;-75
2022/03/07 02:46:45;;;;;;;10.20;5.23;;;;;-0.20;96700.00;;;;8411482;28;20226;-74
2022/03/07 02:50:48;;;;;;;9.97;5.10;;;;;-0.20;96698.00;;;;8410751;28;20211;-74
2022/03/07 02:54:53;;;;;;;7.80;5.13;;;;;-0.20;96704.00;;;;8411511;28;20319;-74
2022/03/07 02:58:55;;;;;;;8.27;5.40;;;;;-0.20;96701.00;;;;8405043;28;20284;-73
2022/03/07 03:02:59;;;;;;;12.20;5.47;;;;;-0.20;96715.00;;;;8409849;22;20234;-75
2022/03/07 03:07:02;;;;;;;9.33;4.60;;;;;-0.20;96705.00;;;;8377401;28;20230;-73
2022/03/07 03:11:06;;;;;;;9.07;5.67;;;;;-0.20;96694.00;;;;8372231;28;20289;-73
2022/03/07 03:15:10;;;;;;;7.90;5.10;;;;;-0.20;96701.00;;;;8376426;28;20224;-73
2022/03/07 03:19:12;;;;;;;7.10;4.83;;;;;-0.30;96700.00;;;;8378867;28;20228;-73
2022/03/07 03:23:16;;;;;;;10.27;5.73;;;;;-0.30;96700.00;;;;8369302;28;20656;-71
2022/03/07 03:27:20;;;;;;;10.43;7.17;;;;;-0.30;96704.00;;;;8364114;28;20228;-71
2022/03/07 03:31:23;;;;;;;11.47;6.20;;;;;-0.40;96702.00;;;;8374018;28;20636;-72
2022/03/07 03:35:26;;;;;;;11.20;5.97;;;;;-0.40;96703.00;;;;8376631;28;20285;-72
2022/03/07 03:39:32;;;;;;;8.37;6.03;;;;;-0.40;96716.00;;;;8370285;28;21271;-73
2022/03/07 03:43:36;;;;;;;11.60;6.40;;;;;-0.40;96704.00;;;;8374265;28;20220;-72
2022/03/07 03:47:40;;;;;;;13.70;6.53;;;;;-0.40;96716.00;;;;8369404;28;20277;-71
2022/03/07 03:51:43;;;;;;;11.90;7.00;;;;;-0.40;96712.00;;;;8370824;28;20237;-72
2022/03/07 03:55:46;;;;;;;12.37;7.23;;;;;-0.40;96710.00;;;;8374161;28;20228;-72
2022/03/07 03:59:51;;;;;;;14.97;6.47;;;;;-0.40;96707.00;;;;8375036;28;20250;-72
2022/03/07 04:03:57;;;;;;;10.13;5.43;;;;;-0.40;96708.00;;;;8368318;28;20232;-72
2022/03/07 04:07:59;;;;;;;12.27;6.13;;;;;-0.50;96715.00;;;;8369660;28;20236;-72
2022/03/07 04:12:03;;;;;;;7.57;5.37;;;;;-0.50;96727.00;;;;8373454;28;20217;-71
2022/03/07 04:16:07;;;;;;;11.20;6.40;;;;;-0.50;96724.00;;;;8374108;28;20718;-71
2022/03/07 04:20:12;;;;;;;11.60;6.80;;;;;-0.50;96736.00;;;;8372711;28;20243;-71
2022/03/07 04:24:16;;;;;;;13.13;6.97;;;;;-0.50;96730.00;;;;8363102;28;20227;-70
2022/03/07 04:28:19;;;;;;;8.10;5.60;;;;;-0.50;96721.00;;;;8366697;28;20220;-70
2022/03/07 04:32:23;;;;;;;13.47;7.60;;;;;-0.60;96726.00;;;;8369963;28;20238;-72
2022/03/07 04:36:26;;;;;;;13.57;7.20;;;;;-0.60;96735.00;;;;8373288;28;20235;-71
2022/03/07 04:40:30;;;;;;;16.40;7.00;;;;;-0.60;96733.00;;;;8374685;28;20224;-71
2022/03/07 04:44:33;;;;;;;10.53;6.13;;;;;-0.70;96732.00;;;;8381888;28;20798;-70
2022/03/07 04:48:38;;;;;;;6.43;5.13;;;;;-0.70;96725.00;;;;8378191;28;20319;-71
2022/03/07 04:52:43;;;;;;;16.43;7.53;;;;;-0.70;96728.00;;;;8373946;28;20272;-71
2022/03/07 04:56:47;;;;;;;17.77;8.00;;;;;-0.70;96730.00;;;;8380036;28;20217;-72
2022/03/07 05:00:52;;;;;;;16.43;9.27;;;;;-0.70;96740.00;;;;8373477;28;20345;-69
2022/03/07 05:04:57;;;;;;;14.30;7.90;;;;;-0.80;96732.00;;;;8371918;28;20220;-70
2022/03/07 05:08:59;;;;;;;19.07;8.43;;;;;-0.80;96748.00;;;;8378628;28;20289;-69
2022/03/07 05:13:03;;;;;;;11.10;6.07;;;;;-0.80;96758.00;;;;8372508;28;20234;-70
2022/03/07 05:17:06;;;;;;;10.33;5.87;;;;;-0.80;96754.00;;;;8381984;28;20289;-73
2022/03/07 05:21:10;;;;;;;18.40;7.50;;;;;-0.80;96750.00;;;;8372618;28;20696;-69
2022/03/07 05:25:14;;;;;;;17.80;8.87;;;;;-0.80;96747.00;;;;8370920;28;20255;-69
2022/03/07 05:29:17;;;;;;;14.63;8.33;;;;;-0.90;96752.00;;;;8380176;28;20247;-70
2022/03/07 05:33:21;;;;;;;17.20;9.07;;;;;-0.90;96754.00;;;;8379991;28;20281;-71
2022/03/07 05:37:25;;;;;;;19.90;10.83;;;;;-0.90;96750.00;;;;8380791;28;20227;-71
2022/03/07 05:41:28;;;;;;;20.23;10.03;;;;;-0.90;96764.00;;;;8391347;28;20581;-70
2022/03/07 05:45:31;;;;;;;13.07;7.77;;;;;-0.90;96762.00;;;;8372259;28;20223;-70
2022/03/07 05:49:34;;;;;;;19.00;10.37;;;;;-1.00;96766.00;;;;8371756;28;20650;-70
2022/03/07 05:53:39;;;;;;;19.63;9.63;;;;;-1.00;96766.00;;;;8379120;28;20220;-70
2022/03/07 05:57:42;;;;;;;19.70;10.67;;;;;-1.00;96772.00;;;;8381754;28;20747;-70
2022/03/07 06:01:44;;;;;;;21.93;11.10;;;;;-1.00;96771.00;;;;8378657;28;20294;-69
2022/03/07 06:05:47;;;;;;;21.07;10.27;;;;;-1.00;96775.00;;;;8374530;28;20235;-72
2022/03/07 06:09:53;;;;;;;26.67;12.00;;;;;-1.00;96783.00;;;;8383769;28;20256;-70
2022/03/07 06:13:56;;;;;;;25.03;12.20;;;;;-1.00;96781.00;;;;8381252;28;20224;-71
2022/03/07 06:17:59;;;;;;;24.03;12.33;;;;;-0.90;96780.00;;;;8378109;28;20265;-71
2022/03/07 06:22:03;;;;;;;28.47;12.70;;;;;-0.90;96779.00;;;;8376039;28;20220;-69
2022/03/07 06:26:08;;;;;;;23.73;11.03;;;;;-0.90;96773.00;;;;8377147;28;20313;-69
2022/03/07 06:30:11;;;;;;;29.57;13.23;;;;;-0.90;96770.00;;;;8379810;28;20685;-69
2022/03/07 06:34:14;;;;;;;40.27;14.40;;;;;-0.80;96762.00;;;;8379703;28;20289;-70
2022/03/07 06:38:19;;;;;;;27.23;13.30;;;;;-0.80;96773.00;;;;8378862;28;20227;-70
2022/03/07 06:42:23;;;;;;;28.30;13.60;;;;;-0.70;96782.00;;;;8380692;28;20985;-70
2022/03/07 06:46:26;;;;;;;22.13;11.73;;;;;-0.70;96777.00;;;;8379843;28;20228;-70
2022/03/07 06:50:30;;;;;;;32.27;13.43;;;;;-0.60;96780.00;;;;8381325;28;20224;-71
2022/03/07 06:54:33;;;;;;;25.17;12.83;;;;;-0.60;96790.00;;;;8371104;28;20293;-72
2022/03/07 06:58:37;;;;;;;24.67;12.03;;;;;-0.50;96805.00;;;;8377063;28;20775;-70
2022/03/07 07:02:41;;;;;;;30.70;13.60;;;;;-0.50;96800.00;;;;8373778;28;20236;-70
2022/03/07 07:06:44;;;;;;;21.80;10.27;;;;;-0.50;96805.00;;;;8373618;28;20330;-71
2022/03/07 07:10:47;;;;;;;24.20;13.10;;;;;-0.50;96811.00;;;;8365812;28;20265;-71
2022/03/07 07:14:51;;;;;;;23.20;11.03;;;;;-0.40;96822.00;;;;8364692;28;20488;-70
2022/03/07 07:18:54;;;;;;;27.33;15.23;;;;;-0.30;96826.00;;;;8374498;28;20745;-71
2022/03/07 07:22:57;;;;;;;27.47;14.97;;;;;-0.30;96838.00;;;;8376947;28;20231;-73
2022/03/07 07:27:00;;;;;;;26.23;14.03;;;;;-0.20;96835.00;;;;8380446;28;20288;-69
2022/03/07 07:31:05;;;;;;;28.07;13.67;;;;;-0.30;96828.00;;;;8377465;28;20669;-71
2022/03/07 07:35:09;;;;;;;28.17;13.17;;;;;-0.20;96843.00;;;;8354202;28;20236;-72
2022/03/07 07:39:12;;;;;;;26.20;14.10;;;;;-0.30;96838.00;;;;8372799;28;20631;-71
2022/03/07 07:43:15;;;;;;;18.13;9.80;;;;;-0.30;96848.00;;;;8375157;28;20280;-70
2022/03/07 07:47:19;;;;;;;28.70;12.73;;;;;-0.20;96859.00;;;;8372314;28;20270;-70
2022/03/07 07:51:23;;;;;;;26.23;12.50;;;;;-0.20;96864.00;;;;8375134;28;20308;-68
2022/03/07 07:55:26;;;;;;;21.80;10.10;;;;;-0.10;96871.00;;;;8367890;28;20220;-71
2022/03/07 07:59:29;;;;;;;28.47;12.93;;;;;-0.10;96874.00;;;;8378101;28;20281;-71
2022/03/07 08:03:34;;;;;;;25.03;11.93;;;;;-0.10;96871.00;;;;8383257;28;20235;-71
2022/03/07 08:07:39;;;;;;;22.90;12.77;;;;;0.00;96878.00;;;;8379416;28;20230;-69
2022/03/07 08:11:42;;;;;;;24.40;12.30;;;;;0.10;96872.00;;;;8383499;28;20228;-70
2022/03/07 08:15:45;;;;;;;28.07;13.23;;;;;0.20;96879.00;;;;8382214;28;20863;-71
2022/03/07 08:19:50;;;;;;;28.43;13.90;;;;;0.30;96877.00;;;;8381692;28;20255;-71
2022/03/07 08:23:54;;;;;;;22.70;11.93;;;;;0.50;96887.00;;;;8384909;28;20224;-71
2022/03/07 08:27:57;;;;;;;24.87;12.43;;;;;0.50;96885.00;;;;8374898;28;20226;-70
2022/03/07 08:32:00;;;;;;;23.00;12.73;;;;;0.70;96879.00;;;;8382594;28;20230;-69
2022/03/07 08:36:05;;;;;;;25.23;12.63;;;;;1.10;96900.00;;;;8383157;28;20232;-70
2022/03/07 08:40:10;;;;;;;25.17;12.57;;;;;1.50;96902.00;;;;8378885;28;20851;-70
2022/03/07 08:44:12;;;;;;;24.93;13.83;;;;;1.90;96903.00;;;;8377706;28;20230;-75
2022/03/07 08:48:16;;;;;;;25.13;12.90;;;;;1.90;96908.00;;;;8375451;28;20226;-74
2022/03/07 08:52:20;;;;;;;28.63;14.10;;;;;1.80;96904.00;;;;8376886;28;20266;-74
2022/03/07 08:56:23;;;;;;;21.73;11.07;;;;;2.00;96913.00;;;;8377176;28;20223;-75
2022/03/07 09:00:29;;;;;;;29.20;14.03;;;;;2.10;96915.00;;;;8371345;28;20857;-75
2022/03/07 09:04:33;;;;;;;21.33;11.13;;;;;2.20;96911.00;;;;8375668;28;20228;-75
2022/03/07 09:08:37;;;;;;;26.97;14.50;;;;;2.60;96921.00;;;;8372484;28;20274;-76
2022/03/07 09:12:40;;;;;;;26.37;14.00;;;;;2.80;96917.00;;;;8380384;28;20236;-77
2022/03/07 09:16:44;;;;;;;26.77;14.70;;;;;2.90;96930.00;;;;8373753;28;23403;-79
2022/03/07 09:20:47;;;;;;;24.57;13.50;;;;;3.30;96934.00;;;;8374149;28;24345;-79
2022/03/07 09:24:51;;;;;;;28.50;13.97;;;;;3.40;96932.00;;;;8372790;28;20229;-81
2022/03/07 09:28:55;;;;;;;23.93;14.33;;;;;3.50;96937.00;;;;8373139;28;20237;-82
2022/03/07 09:33:03;;;;;;;27.37;15.47;;;;;3.20;96932.00;;;;8381882;28;20234;-79
2022/03/07 09:37:06;;;;;;;21.97;12.07;;;;;3.00;96936.00;;;;8379038;28;20293;-79
2022/03/07 09:41:11;;;;;;;23.27;12.57;;;;;2.60;96950.00;;;;8374355;28;20262;-78
2022/03/07 09:45:14;;;;;;;26.70;14.50;;;;;2.30;96943.00;;;;8380089;28;20253;-77
2022/03/07 09:49:19;;;;;;;17.13;10.13;;;;;2.10;96943.00;;;;8377462;28;20228;-85
2022/03/07 09:53:22;;;;;;;27.07;13.57;;;;;1.90;96944.00;;;;8374847;28;20236;-83
2022/03/07 09:57:27;;;;;;;27.70;14.37;;;;;1.60;96953.00;;;;8376881;28;20289;-83
2022/03/07 10:01:30;;;;;;;24.67;12.53;;;;;1.30;96950.00;;;;8376802;28;20236;-84
2022/03/07 10:05:35;;;;;;;26.00;12.67;;;;;1.50;96956.00;;;;8371995;28;20230;-82
2022/03/07 10:09:38;;;;;;;28.37;13.30;;;;;1.50;96939.00;;;;8369875;28;20223;-81
2022/03/07 10:13:52;;;;;;;27.00;13.97;;;;;1.40;96947.00;;;;8372481;28;20211;-81
2022/03/07 10:17:55;;;;;;;25.97;13.30;;;;;1.50;96946.00;;;;8368412;28;20674;-79
2022/03/07 10:22:01;;;;;;;22.23;12.00;;;;;1.90;96954.00;;;;8372303;28;20864;-79
2022/03/07 10:26:09;;;;;;;21.07;11.83;;;;;2.80;96951.00;;;;8370543;28;20228;-86
2022/03/07 10:30:21;;;;;;;18.30;9.73;;;;;3.90;96950.00;;;;8369881;28;20318;-78
2022/03/07 10:34:25;;;;;;;20.03;12.13;;;;;4.70;96945.00;;;;8362958;28;20231;-79
2022/03/07 10:38:29;;;;;;;20.23;10.80;;;;;5.30;96957.00;;;;8369709;28;20222;-75
2022/03/07 10:42:36;;;;;;;10.17;6.63;;;;;5.30;96966.00;;;;8375452;28;20289;-77
2022/03/07 10:46:41;;;;;;;12.10;7.13;;;;;4.30;96946.00;;;;8370519;28;20281;-79
2022/03/07 10:50:48;;;;;;;12.53;6.53;;;;;3.60;96950.00;;;;8368665;28;20687;-81
2022/03/07 10:54:51;;;;;;;12.80;7.10;;;;;3.10;96955.00;;;;8376186;28;20303;-78
2022/03/07 10:58:55;;;;;;;16.40;7.77;;;;;3.10;96958.00;;;;8380616;28;20235;-78
2022/03/07 11:03:00;;;;;;;16.00;7.80;;;;;2.90;96931.00;;;;8375559;28;20235;-80
2022/03/07 11:07:06;;;;;;;16.27;8.20;;;;;3.30;96934.00;;;;8368396;28;20263;-78
2022/03/07 11:11:09;;;;;;;11.00;7.27;;;;;3.40;96933.00;;;;8370218;28;20267;-78
2022/03/07 11:15:18;;;;;;;10.60;6.50;;;;;3.70;96928.00;;;;8373153;28;20241;-75
2022/03/07 11:19:25;;;;;;;14.10;8.30;;;;;3.80;96922.00;;;;8365023;28;20311;-77
2022/03/07 11:23:28;;;;;;;12.37;7.60;;;;;4.10;96928.00;;;;8373565;28;20287;-76
2022/03/07 11:27:31;;;;;;;16.53;7.83;;;;;4.20;96916.00;;;;8374039;28;20235;-76
2022/03/07 11:31:35;;;;;;;9.97;7.13;;;;;4.20;96909.00;;;;8368753;28;20834;-76
2022/03/07 11:35:43;;;;;;;12.17;6.67;;;;;3.90;96909.00;;;;8367006;28;20316;-74
2022/03/07 11:39:46;;;;;;;10.83;7.20;;;;;3.70;96911.00;;;;8373357;28;20707;-78
2022/03/07 11:43:52;;;;;;;11.30;6.90;;;;;3.50;96914.00;;;;8371389;28;20228;-81
2022/03/07 11:47:55;;;;;;;11.13;7.30;;;;;3.40;96891.00;;;;8380873;28;20307;-79
2022/03/07 11:52:05;;;;;;;11.97;7.03;;;;;3.60;96891.00;;;;8379935;28;20238;-80
2022/03/07 11:56:17;;;;;;;14.00;6.40;;;;;3.50;96889.00;;;;8382816;28;20224;-80
2022/03/07 12:00:23;;;;;;;13.40;6.80;;;;;3.30;96875.00;;;;8387311;28;20282;-79
2022/03/07 12:04:26;;;;;;;10.20;7.00;;;;;3.50;96873.00;;;;8386334;28;20291;-74
2022/03/07 12:08:31;;;;;;;12.00;6.73;;;;;3.60;96870.00;;;;8389682;28;20239;-75
2022/03/07 12:12:34;;;;;;;10.53;6.03;;;;;3.60;96867.00;;;;8376563;28;20234;-81
2022/03/07 12:16:38;;;;;;;10.00;6.83;;;;;3.50;96871.00;;;;8379942;28;20270;-84
2022/03/07 12:20:50;;;;;;;10.33;6.30;;;;;3.50;96866.00;;;;8376771;28;20225;-78
2022/03/07 12:24:58;;;;;;;11.53;5.73;;;;;3.50;96858.00;;;;8373511;28;20247;-79
2022/03/07 12:29:01;;;;;;;12.40;6.10;;;;;3.60;96855.00;;;;8375988;28;20227;-82
2022/03/07 12:33:06;;;;;;;14.93;6.77;;;;;3.70;96853.00;;;;8385360;28;20258;-83
2022/03/07 12:37:12;;;;;;;11.70;6.60;;;;;3.90;96847.00;;;;8381864;28;20238;-82
2022/03/07 12:41:17;;;;;;;11.20;6.53;;;;;4.00;96851.00;;;;8384781;28;20232;-80
2022/03/07 12:45:20;;;;;;;11.93;6.67;;;;;4.10;96845.00;;;;8385689;28;20233;-81
2022/03/07 12:49:23;;;;;;;11.50;5.53;;;;;4.20;96850.00;;;;8379604;28;20317;-79
2022/03/07 12:53:26;;;;;;;10.30;6.10;;;;;4.20;96850.00;;;;8387519;28;20242;-80
2022/03/07 12:57:30;;;;;;;7.20;5.57;;;;;4.20;96843.00;;;;8386253;28;20225;-81
2022/03/07 13:01:33;;;;;;;7.00;5.27;;;;;4.10;96836.00;;;;8380628;28;20238;-78
2022/03/07 13:05:37;;;;;;;8.97;5.80;;;;;4.10;96832.00;;;;8377905;28;20280;-79
2022/03/07 13:09:40;;;;;;;9.67;6.27;;;;;4.10;96824.00;;;;8379571;28;20233;-79
2022/03/07 13:13:48;;;;;;;9.20;5.90;;;;;4.00;96832.00;;;;8375343;28;20242;-78
2022/03/07 13:18:01;;;;;;;10.73;6.40;;;;;3.80;96814.00;;;;8378123;28;20762;-76
2022/03/07 13:22:06;;;;;;;47.40;8.80;;;;;3.80;96823.00;;;;8381999;28;20279;-75
2022/03/07 13:26:17;;;;;;;10.17;6.43;;;;;3.80;96818.00;;;;8380429;28;20224;-73
2022/03/07 13:30:23;;;;;;;10.03;6.60;;;;;4.00;96822.00;;;;8377959;28;20302;-76
2022/03/07 13:34:27;;;;;;;11.80;6.30;;;;;4.10;96820.00;;;;8377409;28;20230;-74
2022/03/07 13:38:35;;;;;;;9.87;6.50;;;;;4.20;96822.00;;;;8380779;28;20241;-77
2022/03/07 13:42:40;;;;;;;8.60;6.17;;;;;4.30;96823.00;;;;8382060;28;21839;-76
2022/03/07 13:46:54;;;;;;;9.80;6.67;;;;;4.20;96820.00;;;;8383544;28;20250;-74
2022/03/07 13:50:58;;;;;;;10.23;6.50;;;;;4.30;96825.00;;;;8380413;28;20580;-79
2022/03/07 13:55:03;;;;;;;7.93;5.77;;;;;4.40;96817.00;;;;8381827;28;20227;-74
2022/03/07 13:59:13;;;;;;;11.80;6.80;;;;;4.50;96805.00;;;;8379633;28;20621;-75
2022/03/07 14:03:20;;;;;;;9.97;6.43;;;;;4.60;96808.00;;;;8364324;28;20266;-70
2022/03/07 14:07:31;;;;;;;11.73;6.17;;;;;4.40;96809.00;;;;8380579;28;20606;-70
2022/03/07 14:11:40;;;;;;;7.80;4.43;;;;;4.50;96818.00;;;;8380058;28;20291;-74
2022/03/07 14:15:45;;;;;;;11.57;8.10;;;;;4.50;96816.00;;;;8381094;28;20217;-73
2022/03/07 14:19:49;;;;;;;14.17;7.67;;;;;4.40;96802.00;;;;8368839;28;20218;-75
2022/03/07 14:23:52;;;;;;;15.43;7.70;;;;;4.30;96797.00;;;;8373183;28;20277;-75
2022/03/07 14:27:57;;;;;;;13.03;7.90;;;;;4.30;96808.00;;;;8367615;28;20292;-74
2022/03/07 14:32:00;;;;;;;13.33;7.20;;;;;4.30;96804.00;;;;8360533;28;20234;-76
2022/03/07 14:36:05;;;;;;;14.10;7.57;;;;;4.30;96795.00;;;;8376447;28;20239;-77
2022/03/07 14:40:11;;;;;;;11.60;7.67;;;;;4.30;96794.00;;;;8373848;28;20984;-76
2022/03/07 14:44:14;;;;;;;12.10;7.63;;;;;4.40;96798.00;;;;8363198;28;20283;-76
2022/03/07 14:48:17;;;;;;;15.17;7.87;;;;;4.50;96786.00;;;;8358326;28;20240;-75
2022/03/07 14:52:22;;;;;;;11.80;7.90;;;;;4.60;96791.00;;;;8370962;28;20224;-74
2022/03/07 14:56:41;;;;;;;11.97;7.80;;;;;4.70;96793.00;;;;8385454;28;20586;-74
2022/03/07 15:00:44;;;;;;;10.53;6.87;;;;;4.70;96800.00;;;;8377299;28;20239;-74
2022/03/07 15:04:47;;;;;;;15.43;7.53;;;;;4.70;96800.00;;;;8354547;28;20231;-73
2022/03/07 15:08:52;;;;;;;13.33;8.50;;;;;4.60;96788.00;;;;8359047;28;20277;-73
2022/03/07 15:12:55;;;;;;;11.60;7.37;;;;;4.70;96786.00;;;;8358053;28;20238;-73
2022/03/07 15:16:58;;;;;;;12.97;8.20;;;;;4.60;96791.00;;;;8362180;28;20819;-74
2022/03/07 15:21:04;;;;;;;13.97;7.77;;;;;4.40;96785.00;;;;8372654;28;20316;-74
2022/03/07 15:25:09;;;;;;;11.03;7.23;;;;;4.40;96785.00;;;;8368967;28;20314;-73
2022/03/07 15:29:15;;;;;;;10.97;7.73;;;;;4.30;96780.00;;;;8372042;28;20230;-72
2022/03/07 15:33:18;;;;;;;17.13;8.20;;;;;4.30;96782.00;;;;8366243;28;20236;-74
2022/03/07 15:37:21;;;;;;;11.80;8.20;;;;;4.20;96790.00;;;;8375278;28;20291;-74
2022/03/07 15:41:25;;;;;;;15.13;8.10;;;;;4.20;96796.00;;;;8368022;28;20847;-73
2022/03/07 15:45:28;;;;;;;14.53;7.60;;;;;4.20;96798.00;;;;8380894;28;20932;-75
2022/03/07 15:49:32;;;;;;;14.40;6.97;;;;;4.10;96807.00;;;;8375977;28;20326;-75
2022/03/07 15:53:35;;;;;;;10.13;6.90;;;;;4.10;96812.00;;;;8374127;28;20299;-74
2022/03/07 15:57:41;;;;;;;12.40;7.70;;;;;4.00;96806.00;;;;8369495;28;20696;-72
2022/03/07 16:01:44;;;;;;;11.93;7.50;;;;;3.90;96801.00;;;;8371836;28;20320;-73
2022/03/07 16:05:51;;;;;;;12.63;7.17;;;;;3.80;96813.00;;;;8375505;28;20237;-73
2022/03/07 16:09:54;;;;;;;10.40;5.97;;;;;3.70;96809.00;;;;8377580;28;20237;-73
2022/03/07 16:14:00;;;;;;;23.70;7.30;;;;;3.70;96807.00;;;;8380207;28;20231;-74
2022/03/07 16:18:04;;;;;;;14.20;7.53;;;;;3.60;96805.00;;;;8360605;28;20651;-73
2022/03/07 16:22:07;;;;;;;9.90;7.13;;;;;3.60;96810.00;;;;8367000;28;20285;-74
2022/03/07 16:26:10;;;;;;;11.13;7.30;;;;;3.50;96811.00;;;;8361546;28;20231;-73
2022/03/07 16:30:15;;;;;;;11.10;6.13;;;;;3.40;96816.00;;;;8366466;28;20234;-74
2022/03/07 16:34:21;;;;;;;11.47;7.33;;;;;3.40;96813.00;;;;8365584;28;20583;-74
2022/03/07 16:38:25;;;;;;;9.87;6.10;;;;;3.30;96828.00;;;;8368659;28;20263;-76
2022/03/07 16:42:29;;;;;;;7.10;5.03;;;;;3.20;96824.00;;;;8369666;28;20273;-76
2022/03/07 16:46:33;;;;;;;12.80;6.70;;;;;3.10;96839.00;;;;8369332;28;20865;-73
2022/03/07 16:50:37;;;;;;;9.20;6.17;;;;;3.00;96848.00;;;;8379253;28;20311;-74
2022/03/07 16:54:40;;;;;;;10.70;6.20;;;;;2.90;96850.00;;;;8374826;28;20224;-75
2022/03/07 16:58:44;;;;;;;10.77;6.53;;;;;2.80;96851.00;;;;8378340;28;20226;-76
2022/03/07 17:02:48;;;;;;;11.20;6.57;;;;;2.70;96853.00;;;;8373481;28;20275;-77
2022/03/07 17:06:52;;;;;;;10.33;6.80;;;;;2.50;96855.00;;;;8365138;28;20799;-75
2022/03/07 17:10:55;;;;;;;10.77;6.67;;;;;2.40;96857.00;;;;8365611;28;20233;-81
2022/03/07 17:14:59;;;;;;;12.10;6.50;;;;;2.30;96850.00;;;;8379259;28;20802;-79
2022/03/07 17:19:04;;;;;;;11.40;6.17;;;;;2.20;96862.00;;;;8362288;28;20270;-77
2022/03/07 17:23:09;;;;;;;10.00;6.63;;;;;2.10;96862.00;;;;8359622;28;20690;-76
2022/03/07 17:27:13;;;;;;;10.13;6.87;;;;;2.00;96864.00;;;;8380266;28;20220;-77
2022/03/07 17:31:16;;;;;;;13.20;6.70;;;;;2.00;96871.00;;;;8376700;28;22477;-78
2022/03/07 17:35:23;;;;;;;10.43;6.67;;;;;1.90;96873.00;;;;8372149;28;20247;-77
2022/03/07 17:39:26;;;;;;;8.37;6.20;;;;;1.80;96889.00;;;;8373863;28;20232;-76
2022/03/07 17:43:29;;;;;;;8.13;6.07;;;;;1.80;96884.00;;;;8372215;28;20243;-76
2022/03/07 17:47:33;;;;;;;10.10;6.97;;;;;1.70;96897.00;;;;8377958;28;20229;-79
2022/03/07 17:51:39;;;;;;;10.53;6.40;;;;;1.60;96891.00;;;;8375935;28;20237;-79
2022/03/07 17:55:42;;;;;;;12.83;7.20;;;;;1.50;96899.00;;;;8379924;28;20236;-78
2022/03/07 17:59:45;;;;;;;13.53;6.77;;;;;1.50;96898.00;;;;8377587;28;20560;-78
2022/03/07 18:03:48;;;;;;;14.30;6.47;;;;;1.50;96899.00;;;;8380071;28;20228;-77
2022/03/07 18:07:54;;;;;;;10.37;6.33;;;;;1.40;96908.00;;;;8375445;28;20691;-77
2022/03/07 18:11:58;;;;;;;9.53;6.03;;;;;1.40;96914.00;;;;8374746;28;20287;-78
2022/03/07 18:16:01;;;;;;;10.47;6.50;;;;;1.40;96914.00;;;;8377511;28;20227;-78
2022/03/07 18:20:06;;;;;;;9.90;6.10;;;;;1.30;96910.00;;;;8372960;28;20228;-84
2022/03/07 18:24:10;;;;;;;9.93;6.33;;;;;1.30;96908.00;;;;8378190;28;20234;-74
2022/03/07 18:28:14;;;;;;;13.33;6.73;;;;;1.20;96921.00;;;;8374439;28;20227;-75
2022/03/07 18:32:17;;;;;;;13.97;6.77;;;;;1.20;96911.00;;;;8376922;28;20281;-78
2022/03/07 18:36:20;;;;;;;11.23;6.73;;;;;1.20;96911.00;;;;8370910;28;20708;-78
2022/03/07 18:40:24;;;;;;;10.17;6.70;;;;;1.20;96917.00;;;;8370827;28;20278;-74
2022/03/07 18:44:28;;;;;;;12.47;6.77;;;;;1.20;96919.00;;;;8366467;28;20297;-73
2022/03/07 18:48:31;;;;;;;11.80;6.03;;;;;1.20;96929.00;;;;8373732;28;20340;-74
2022/03/07 18:52:34;;;;;;;12.93;6.67;;;;;1.20;96927.00;;;;8368872;28;20234;-73
2022/03/07 18:56:38;;;;;;;11.43;6.30;;;;;1.30;96935.00;;;;8375514;28;20562;-73
2022/03/07 19:00:41;;;;;;;8.90;6.03;;;;;1.40;96938.00;;;;8373123;28;21726;-74
2022/03/07 19:04:44;;;;;;;10.93;7.03;;;;;1.50;96933.00;;;;8367590;28;20224;-75
2022/03/07 19:14:20;;;;;;;9.23;6.27;;;;;1.50;96944.00;;;;8393723;28;20619;-74
2022/03/07 19:18:54;;;;;;;9.40;6.00;;;;;1.40;96939.00;;;;8393073;28;20228;-74
2022/03/07 19:23:31;;;;;;;10.47;5.80;;;;;1.30;96946.00;;;;8393977;28;20285;-74
2022/03/07 19:28:08;;;;;;;18.13;8.20;;;;;1.10;96942.00;;;;8393851;28;20668;-75
2022/03/07 19:32:46;;;;;;;10.93;6.77;;;;;1.00;96941.00;;;;8390640;28;20281;-74
2022/03/07 19:36:52;;;;;;;9.33;6.07;;;;;0.80;96947.00;;;;8394159;28;20293;-74
2022/03/07 19:40:57;;;;;;;15.23;6.10;;;;;0.70;96944.00;;;;8393801;28;20268;-74
2022/03/07 19:45:31;;;;;;;10.07;5.80;;;;;0.60;96951.00;;;;8394064;28;20220;-73
2022/03/07 19:50:08;;;;;;;9.73;6.00;;;;;0.40;96947.00;;;;8394140;28;20223;-73
2022/03/07 19:54:46;;;;;;;8.07;5.53;;;;;0.20;96938.00;;;;8393541;28;20274;-72
2022/03/07 19:58:49;;;;;;;10.40;5.57;;;;;0.10;96953.00;;;;8393494;28;20219;-76
2022/03/07 20:07:50;;;;;;;12.07;6.87;;;;;-0.20;96951.00;;;;8398425;28;20253;-72
2022/03/07 20:12:27;;;;;;;12.00;6.27;;;;;-0.50;96951.00;;;;8399177;28;20224;-72
2022/03/07 20:16:35;;;;;;;15.27;6.47;;;;;-0.60;96959.00;;;;8400173;28;20652;-71
2022/03/07 20:21:06;;;;;;;12.97;6.77;;;;;-0.80;96956.00;;;;8399854;28;20220;-71
2022/03/07 20:25:43;;;;;;;11.80;5.93;;;;;-0.80;96957.00;;;;8399168;28;20224;-72
2022/03/07 20:30:19;;;;;;;8.07;6.10;;;;;-0.70;96959.00;;;;8399048;28;20277;-73
2022/03/07 20:34:58;;;;;;;11.03;6.33;;;;;-0.70;96964.00;;;;8395843;28;20726;-70